createdAt,value
2023-04-18T00:02:38.545Z,7.29
2023-04-18T00:06:00.877Z,7.28
2023-04-18T00:09:22.569Z,7.29
2023-04-18T00:12:44.529Z,7.28
2023-04-18T00:16:08.055Z,7.30
2023-04-18T00:19:31.479Z,7.30
2023-04-18T00:22:55.070Z,7.28
2023-04-18T00:26:17.826Z,7.27
2023-04-18T00:29:42.558Z,7.25
2023-04-18T00:33:04.481Z,7.22
2023-04-18T00:36:28.180Z,7.20
2023-04-18T00:39:49.691Z,7.16
2023-04-18T00:43:10.945Z,7.11
2023-04-18T00:46:35.448Z,7.07
2023-04-18T00:49:57.111Z,7.03
2023-04-18T00:53:21.152Z,7.01
2023-04-18T00:56:43.085Z,7.01
2023-04-18T01:00:09.334Z,7.01
2023-04-18T01:03:33.044Z,7.01
2023-04-18T01:06:55.202Z,7.01
2023-04-18T01:10:18.862Z,6.99
2023-04-18T01:13:40.314Z,7.00
2023-04-18T01:17:02.186Z,7.05
2023-04-18T01:20:26.133Z,7.06
2023-04-18T01:23:48.851Z,7.06
2023-04-18T01:27:14.443Z,7.01
2023-04-18T01:30:35.910Z,6.99
2023-04-18T01:33:57.708Z,6.96
2023-04-18T01:37:19.532Z,6.93
2023-04-18T01:40:41.010Z,6.91
2023-04-18T01:44:03.657Z,6.85
2023-04-18T01:47:25.275Z,6.76
2023-04-18T01:50:47.047Z,6.70
2023-04-18T01:54:08.485Z,6.64
2023-04-18T01:57:30.482Z,6.60
2023-04-18T02:00:54.741Z,6.55
2023-04-18T02:04:16.685Z,6.47
2023-04-18T02:07:42.745Z,6.42
2023-04-18T02:11:04.730Z,6.34
2023-04-18T02:14:27.778Z,6.27
2023-04-18T02:17:51.487Z,6.12
2023-04-18T02:21:13.425Z,6.00
2023-04-18T02:24:35.721Z,5.88
2023-04-18T02:27:58.173Z,5.75
2023-04-18T02:31:19.649Z,5.65
2023-04-18T02:34:42.373Z,5.56
2023-04-18T02:38:04.097Z,5.49
2023-04-18T02:41:25.919Z,5.43
2023-04-18T02:44:48.712Z,5.36
2023-04-18T02:48:10.999Z,5.29
2023-04-18T02:51:34.547Z,5.27
2023-04-18T02:54:56.917Z,5.21
2023-04-18T02:58:22.781Z,5.19
2023-04-18T03:02:05.392Z,5.19
2023-04-18T03:05:28.793Z,5.19
2023-04-18T03:08:55.761Z,5.24
2023-04-18T03:12:18.621Z,5.29
2023-04-18T03:15:41.300Z,5.34
2023-04-18T03:19:05.318Z,5.34
2023-04-18T03:22:28.805Z,5.34
2023-04-18T03:25:53.611Z,5.37
2023-04-18T03:29:16.184Z,5.35
2023-04-18T03:32:42.220Z,5.38
2023-04-18T03:36:04.448Z,5.36
2023-04-18T03:39:26.033Z,5.41
2023-04-18T03:42:50.508Z,5.45
2023-04-18T03:46:12.059Z,5.50
2023-04-18T03:49:33.923Z,5.51
2023-04-18T03:52:57.851Z,5.55
2023-04-18T03:56:19.799Z,5.59
2023-04-18T03:59:51.104Z,5.63
2023-04-18T04:03:13.716Z,5.65
2023-04-18T04:06:36.454Z,5.64
2023-04-18T04:09:58.610Z,5.68
2023-04-18T04:13:20.557Z,5.72
2023-04-18T04:16:45.207Z,5.76
2023-04-18T04:20:10.964Z,5.78
2023-04-18T04:23:33.176Z,5.80
2023-04-18T04:26:56.345Z,5.84
2023-04-18T04:30:19.751Z,5.87
2023-04-18T04:33:43.675Z,5.90
2023-04-18T04:37:13.983Z,5.92
2023-04-18T04:40:47.519Z,5.97
2023-04-18T04:44:09.626Z,6.01
2023-04-18T04:47:31.966Z,6.04
2023-04-18T04:50:56.692Z,6.03
2023-04-18T04:54:18.109Z,6.02
2023-04-18T04:57:40.394Z,6.01
2023-04-18T05:01:18.015Z,6.03
2023-04-18T05:04:40.201Z,6.07
2023-04-18T05:08:03.711Z,6.07
2023-04-18T05:11:25.945Z,6.12
2023-04-18T05:14:47.287Z,6.15
2023-04-18T05:18:09.026Z,6.18
2023-04-18T05:21:31.367Z,6.26
2023-04-18T05:24:54.415Z,6.29
2023-04-18T05:28:16.919Z,6.32
2023-04-18T05:31:38.621Z,6.35
2023-04-18T05:35:00.399Z,6.36
2023-04-18T05:38:22.043Z,6.41
2023-04-18T05:41:45.261Z,6.43
2023-04-18T05:45:07.954Z,6.43
2023-04-18T05:48:29.644Z,6.49
2023-04-18T05:51:52.883Z,6.55
2023-04-18T05:55:14.305Z,6.61
2023-04-18T05:58:37.415Z,6.63
2023-04-18T06:01:59.114Z,6.73
2023-04-18T06:05:20.581Z,6.77
2023-04-18T06:08:42.865Z,6.80
2023-04-18T06:12:05.208Z,6.80
2023-04-18T06:15:29.077Z,6.89
2023-04-18T06:18:50.707Z,6.97
2023-04-18T06:22:12.414Z,7.02
2023-04-18T06:25:34.316Z,7.06
2023-04-18T06:28:56.211Z,7.14
2023-04-18T06:32:19.057Z,7.18
2023-04-18T06:35:41.259Z,7.24
2023-04-18T06:39:03.002Z,7.28
2023-04-18T06:42:24.340Z,7.29
2023-04-18T06:45:46.550Z,7.33
2023-04-18T06:49:09.868Z,7.35
2023-04-18T06:52:31.495Z,7.38
2023-04-18T06:55:53.375Z,7.42
2023-04-18T06:59:15.110Z,7.51
2023-04-18T07:02:38.675Z,7.58
2023-04-18T07:06:02.862Z,7.62
2023-04-18T07:09:24.578Z,7.70
2023-04-18T07:12:47.854Z,7.77
2023-04-18T07:16:10.942Z,7.84
2023-04-18T07:19:33.121Z,7.90
2023-04-18T07:22:55.729Z,7.99
2023-04-18T07:26:17.638Z,8.06
2023-04-18T07:29:39.327Z,8.11
2023-04-18T07:33:01.284Z,8.16
2023-04-18T07:36:22.832Z,8.21
2023-04-18T07:39:45.595Z,8.25
2023-04-18T07:43:07.178Z,8.29
2023-04-18T07:46:28.970Z,8.33
2023-04-18T07:49:51.636Z,8.40
2023-04-18T07:53:13.873Z,8.44
2023-04-18T07:56:36.938Z,8.48
2023-04-18T07:59:58.331Z,8.50
2023-04-18T08:03:20.271Z,8.51
2023-04-18T08:06:42.649Z,8.53
2023-04-18T08:10:04.931Z,8.55
2023-04-18T08:13:28.023Z,8.58
2023-04-18T08:16:49.450Z,8.61
2023-04-18T08:20:12.919Z,8.63
2023-04-18T08:23:59.953Z,8.65
2023-04-18T08:27:21.610Z,8.67
2023-04-18T08:30:48.645Z,8.68
2023-04-18T08:34:10.372Z,8.75
2023-04-18T08:37:35.187Z,8.79
2023-04-18T08:40:57.087Z,8.81
2023-04-18T08:44:19.330Z,8.92
2023-04-18T08:47:42.798Z,9.07
2023-04-18T08:51:05.547Z,9.22
2023-04-18T08:54:30.546Z,9.29
2023-04-18T08:57:54.167Z,9.31
2023-04-18T09:01:17.897Z,9.35
2023-04-18T09:04:43.263Z,9.39
2023-04-18T09:08:24.612Z,9.45
2023-04-18T09:11:46.611Z,9.50
2023-04-18T09:15:14.137Z,9.51
2023-04-18T09:18:35.654Z,9.54
2023-04-18T09:22:04.578Z,9.61
2023-04-18T09:25:29.278Z,9.72
2023-04-18T09:28:54.521Z,9.78
2023-04-18T09:32:25.097Z,9.87
2023-04-18T09:35:47.105Z,9.92
2023-04-18T09:39:10.479Z,9.98
2023-04-18T09:42:37.415Z,10.05
2023-04-18T09:46:01.119Z,10.16
2023-04-18T09:49:23.801Z,10.24
2023-04-18T09:52:46.889Z,10.32
2023-04-18T09:56:14.205Z,10.41
2023-04-18T09:59:42.675Z,10.52
2023-04-18T10:03:08.213Z,10.57
2023-04-18T10:06:30.109Z,10.63
2023-04-18T10:09:53.044Z,10.69
2023-04-18T10:13:16.341Z,10.75
2023-04-18T10:16:39.017Z,10.81
2023-04-18T10:20:10.146Z,10.89
2023-04-18T10:23:36.850Z,10.94
2023-04-18T10:26:59.513Z,10.98
2023-04-18T10:30:54.338Z,11.06
2023-04-18T10:34:19.677Z,11.13
2023-04-18T10:37:51.102Z,11.20
2023-04-18T10:41:18.399Z,11.24
2023-04-18T10:44:40.497Z,11.28
2023-04-18T10:48:27.724Z,11.37
2023-04-18T10:51:51.165Z,11.48
2023-04-18T10:55:16.965Z,11.57
2023-04-18T10:58:42.179Z,11.64
2023-04-18T11:02:12.063Z,11.73
2023-04-18T11:05:35.968Z,11.79
2023-04-18T11:09:11.070Z,11.80
2023-04-18T11:12:33.644Z,11.86
2023-04-18T11:15:56.887Z,11.93
2023-04-18T11:19:23.263Z,11.93
2023-04-18T11:22:50.727Z,11.99
2023-04-18T11:26:14.420Z,12.05
2023-04-18T11:29:36.173Z,12.14
2023-04-18T11:32:57.743Z,12.16
2023-04-18T11:36:19.883Z,12.22
2023-04-18T11:39:44.602Z,12.25
2023-04-18T11:43:08.070Z,12.32
2023-04-18T11:46:39.072Z,12.38
2023-04-18T11:50:02.782Z,12.41
2023-04-18T11:53:34.818Z,12.44
2023-04-18T11:56:57.947Z,12.52
2023-04-18T12:00:22.169Z,12.58
2023-04-18T12:03:45.476Z,12.63
2023-04-18T12:07:07.681Z,12.70
2023-04-18T12:10:30.612Z,12.76
2023-04-18T12:13:57.936Z,12.80
2023-04-18T12:17:19.461Z,12.83
2023-04-18T12:20:46.691Z,12.90
2023-04-18T12:24:16.012Z,12.92
2023-04-18T12:27:52.240Z,12.95
2023-04-18T12:31:15.692Z,12.99
2023-04-18T12:34:37.300Z,13.04
2023-04-18T12:38:00.835Z,13.07
2023-04-18T12:41:22.392Z,13.11
2023-04-18T12:44:45.828Z,13.17
2023-04-18T12:48:09.937Z,13.24
2023-04-18T12:51:32.135Z,13.32
2023-04-18T12:54:56.267Z,13.39
2023-04-18T12:58:20.510Z,13.45
2023-04-18T13:01:42.021Z,13.50
2023-04-18T13:05:05.264Z,13.58
2023-04-18T13:08:26.828Z,13.65
2023-04-18T13:11:49.644Z,13.73
2023-04-18T13:15:12.730Z,13.76
2023-04-18T13:18:34.637Z,13.84
2023-04-18T13:21:58.454Z,13.92
2023-04-18T13:25:19.994Z,13.95
2023-04-18T13:28:42.197Z,13.99
2023-04-18T13:32:03.896Z,14.05
2023-04-18T13:35:25.919Z,14.11
2023-04-18T13:38:49.027Z,14.20
2023-04-18T13:42:11.018Z,14.26
2023-04-18T13:45:32.846Z,14.30
2023-04-18T13:48:54.640Z,14.33
2023-04-18T13:52:17.551Z,14.35
2023-04-18T13:55:40.307Z,14.32
2023-04-18T13:59:02.510Z,14.34
2023-04-18T14:02:24.354Z,14.33
2023-04-18T14:05:45.849Z,14.36
2023-04-18T14:09:07.972Z,14.31
2023-04-18T14:12:31.343Z,14.24
2023-04-18T14:15:53.884Z,14.22
2023-04-18T14:19:16.108Z,14.21
2023-04-18T14:22:37.787Z,14.18
2023-04-18T14:25:59.257Z,14.15
2023-04-18T14:29:22.575Z,14.17
2023-04-18T14:32:44.291Z,14.21
2023-04-18T14:36:07.055Z,14.26
2023-04-18T14:39:28.970Z,14.32
2023-04-18T14:42:50.463Z,14.35
2023-04-18T14:46:14.228Z,14.33
2023-04-18T14:49:35.877Z,14.35
2023-04-18T14:52:57.803Z,14.29
2023-04-18T14:56:21.257Z,14.31
2023-04-18T14:59:43.232Z,14.32
2023-04-18T15:03:08.932Z,14.30
2023-04-18T15:06:32.606Z,14.27
2023-04-18T15:09:54.475Z,14.23
2023-04-18T15:13:15.907Z,14.18
2023-04-18T15:16:39.935Z,14.12
2023-04-18T15:20:07.041Z,14.05
2023-04-18T15:23:28.882Z,14.02
2023-04-18T15:26:50.733Z,13.98
2023-04-18T15:30:13.347Z,13.91
2023-04-18T15:33:34.843Z,13.87
2023-04-18T15:36:58.160Z,13.85
2023-04-18T15:40:20.170Z,13.81
2023-04-18T15:43:42.390Z,13.78
2023-04-18T15:47:04.722Z,13.75
2023-04-18T15:50:26.777Z,13.70
2023-04-18T15:53:50.189Z,13.65
2023-04-18T15:57:12.061Z,13.60
2023-04-18T16:00:33.658Z,13.55
2023-04-18T16:03:55.782Z,13.49
2023-04-18T16:07:17.805Z,13.41
2023-04-18T16:10:41.514Z,13.40
2023-04-18T16:14:03.685Z,13.38
2023-04-18T16:17:25.803Z,13.31
2023-04-18T16:20:48.143Z,13.26
2023-04-18T16:24:10.094Z,13.18
2023-04-18T16:27:33.810Z,13.12
2023-04-18T16:30:55.979Z,13.01
2023-04-18T16:34:17.831Z,12.94
2023-04-18T16:37:40.106Z,12.90
2023-04-18T16:41:01.808Z,12.83
2023-04-18T16:44:25.309Z,12.78
2023-04-18T16:47:46.685Z,12.75
2023-04-18T16:51:08.502Z,12.71
2023-04-18T16:54:30.654Z,12.62
2023-04-18T16:57:52.666Z,12.55
2023-04-18T17:01:15.652Z,12.50
2023-04-18T17:04:37.526Z,12.37
2023-04-18T17:07:58.799Z,12.32
2023-04-18T17:11:20.819Z,12.21
2023-04-18T17:14:42.384Z,12.12
2023-04-18T17:18:06.340Z,12.03
2023-04-18T17:21:27.732Z,12.01
2023-04-18T17:24:49.263Z,12.03
2023-04-18T17:28:11.771Z,11.99
2023-04-18T17:31:34.409Z,11.96
2023-04-18T17:34:57.683Z,11.92
2023-04-18T17:38:19.548Z,11.87
2023-04-18T17:41:41.128Z,11.81
2023-04-18T17:45:02.841Z,11.73
2023-04-18T17:48:24.873Z,11.58
2023-04-18T17:51:48.297Z,11.54
2023-04-18T17:55:10.576Z,11.50
2023-04-18T17:58:32.078Z,11.39
2023-04-18T18:01:53.893Z,11.34
2023-04-18T18:05:16.579Z,11.25
2023-04-18T18:08:40.538Z,11.17
2023-04-18T18:12:02.558Z,11.05
2023-04-18T18:15:24.710Z,11.01
2023-04-18T18:18:46.533Z,10.93
2023-04-18T18:22:08.541Z,10.78
2023-04-18T18:25:32.174Z,10.66
2023-04-18T18:28:54.715Z,10.63
2023-04-18T18:32:16.790Z,10.59
2023-04-18T18:35:38.437Z,10.56
2023-04-18T18:39:00.070Z,10.59
2023-04-18T18:42:22.951Z,10.58
2023-04-18T18:45:44.718Z,10.58
2023-04-18T18:49:06.210Z,10.54
2023-04-18T18:52:29.772Z,10.52
2023-04-18T18:55:51.458Z,10.50
2023-04-18T18:59:15.844Z,10.43
2023-04-18T19:02:38.114Z,10.26
2023-04-18T19:06:03.907Z,10.15
2023-04-18T19:09:25.702Z,10.11
2023-04-18T19:12:47.363Z,10.06
2023-04-18T19:16:10.506Z,9.95
2023-04-18T19:19:32.058Z,9.89
2023-04-18T19:22:53.899Z,9.89
2023-04-18T19:26:15.640Z,9.87
2023-04-18T19:29:37.553Z,9.85
2023-04-18T19:33:00.727Z,9.83
2023-04-18T19:36:22.702Z,9.77
2023-04-18T19:39:44.438Z,9.77
2023-04-18T19:43:06.481Z,9.73
2023-04-18T19:46:28.400Z,9.67
2023-04-18T19:49:51.723Z,9.65
2023-04-18T19:53:15.516Z,9.59
2023-04-18T19:56:37.852Z,9.56
2023-04-18T19:59:59.838Z,9.51
2023-04-18T20:03:21.942Z,9.45
2023-04-18T20:06:45.268Z,9.42
2023-04-18T20:10:08.891Z,9.34
2023-04-18T20:13:30.929Z,9.29
2023-04-18T20:16:52.447Z,9.26
2023-04-18T20:20:14.223Z,9.24
2023-04-18T20:23:37.667Z,9.10
2023-04-18T20:27:00.602Z,8.97
2023-04-18T20:30:22.647Z,8.93
2023-04-18T20:33:44.694Z,8.85
2023-04-18T20:37:07.565Z,8.77
2023-04-18T20:40:31.025Z,8.67
2023-04-18T20:43:53.722Z,8.64
2023-04-18T20:47:16.098Z,8.64
2023-04-18T20:50:40.009Z,8.58
2023-04-18T20:54:01.618Z,8.55
2023-04-18T20:57:24.770Z,8.57
2023-04-18T21:00:46.687Z,8.62
2023-04-18T21:04:09.569Z,8.64
2023-04-18T21:07:32.127Z,8.63
2023-04-18T21:10:54.047Z,8.58
2023-04-18T21:14:17.656Z,8.47
2023-04-18T21:17:39.336Z,8.39
2023-04-18T21:21:01.298Z,8.34
2023-04-18T21:24:22.812Z,8.26
2023-04-18T21:27:44.601Z,8.19
2023-04-18T21:31:08.196Z,8.14
2023-04-18T21:34:30.110Z,8.15
2023-04-18T21:37:52.094Z,8.13
2023-04-18T21:41:15.802Z,8.08
2023-04-18T21:44:37.969Z,8.01
2023-04-18T21:48:00.954Z,7.94
2023-04-18T21:51:22.440Z,7.92
2023-04-18T21:54:44.226Z,7.92
2023-04-18T21:58:06.264Z,7.88
2023-04-18T22:01:27.964Z,7.87
2023-04-18T22:04:51.067Z,7.87
2023-04-18T22:08:12.481Z,7.90
2023-04-18T22:11:33.904Z,7.88
2023-04-18T22:14:56.711Z,7.89
2023-04-18T22:18:19.728Z,7.80
2023-04-18T22:21:42.723Z,7.79
2023-04-18T22:25:04.994Z,7.79
2023-04-18T22:28:28.025Z,7.80
2023-04-18T22:31:49.988Z,7.86
2023-04-18T22:35:11.757Z,7.88
2023-04-18T22:38:35.551Z,7.86
2023-04-18T22:41:57.179Z,7.82
2023-04-18T22:45:19.578Z,7.84
2023-04-18T22:48:40.882Z,7.86
2023-04-18T22:52:02.595Z,7.88
2023-04-18T22:55:25.734Z,7.85
2023-04-18T22:58:47.291Z,7.82
2023-04-18T23:02:08.969Z,7.88
2023-04-18T23:05:31.492Z,7.89
2023-04-18T23:08:53.210Z,7.91
2023-04-18T23:12:18.394Z,7.80
2023-04-18T23:15:40.159Z,7.77
2023-04-18T23:19:01.942Z,7.73
2023-04-18T23:22:24.456Z,7.70
2023-04-18T23:25:46.207Z,7.68
2023-04-18T23:29:08.988Z,7.67
2023-04-18T23:32:30.584Z,7.64
2023-04-18T23:35:51.964Z,7.61
2023-04-18T23:39:13.467Z,7.57
2023-04-18T23:42:35.934Z,7.50
2023-04-18T23:45:59.116Z,7.44
2023-04-18T23:49:20.493Z,7.43
2023-04-18T23:52:42.394Z,7.38
2023-04-18T23:56:04.036Z,7.35
2023-04-18T23:59:25.779Z,7.38
